createdAt,value
2023-04-02T00:00:10.400Z,100.00
2023-04-02T00:03:10.441Z,100.00
2023-04-02T00:05:50.137Z,100.00
2023-04-02T00:08:45.735Z,100.00
2023-04-02T00:11:38.933Z,100.00
2023-04-02T00:14:16.423Z,100.00
2023-04-02T00:16:44.513Z,100.00
2023-04-02T00:19:22.199Z,100.00
2023-04-02T00:21:51.207Z,100.00
2023-04-02T00:24:21.716Z,100.00
2023-04-02T00:26:51.578Z,100.00
2023-04-02T00:29:19.507Z,100.00
2023-04-02T00:31:54.479Z,100.00
2023-04-02T00:34:28.072Z,100.00
2023-04-02T00:36:55.412Z,100.00
2023-04-02T00:39:29.241Z,100.00
2023-04-02T00:42:04.940Z,100.00
2023-04-02T00:44:44.309Z,100.00
2023-04-02T00:47:27.738Z,100.00
2023-04-02T00:50:24.732Z,100.00
2023-04-02T00:52:53.638Z,100.00
2023-04-02T00:55:40.001Z,100.00
2023-04-02T00:58:28.292Z,100.00
2023-04-02T01:00:56.730Z,100.00
2023-04-02T01:03:35.185Z,100.00
2023-04-02T01:06:14.279Z,100.00
2023-04-02T01:08:56.781Z,100.00
2023-04-02T01:11:24.063Z,100.00
2023-04-02T01:14:58.368Z,100.00
2023-04-02T01:18:31.418Z,100.00
2023-04-02T01:21:34.272Z,100.00
2023-04-02T01:24:09.876Z,100.00
2023-04-02T01:26:46.570Z,100.00
2023-04-02T01:29:33.441Z,100.00
2023-04-02T01:32:11.795Z,100.00
2023-04-02T01:34:39.791Z,100.00
2023-04-02T01:37:32.460Z,100.00
2023-04-02T01:40:20.811Z,100.00
2023-04-02T01:43:20.559Z,100.00
2023-04-02T01:45:48.226Z,100.00
2023-04-02T01:48:24.824Z,100.00
2023-04-02T01:50:55.172Z,100.00
2023-04-02T01:53:26.179Z,100.00
2023-04-02T01:56:00.648Z,100.00
2023-04-02T01:58:34.339Z,100.00
2023-04-02T02:01:06.819Z,100.00
2023-04-02T02:03:34.771Z,100.00
2023-04-02T02:06:03.441Z,100.00
2023-04-02T02:08:37.046Z,100.00
2023-04-02T02:11:05.701Z,100.00
2023-04-02T02:13:33.610Z,100.00
2023-04-02T02:16:01.995Z,100.00
2023-04-02T02:18:29.874Z,100.00
2023-04-02T02:20:58.907Z,100.00
2023-04-02T02:23:29.298Z,100.00
2023-04-02T02:25:56.674Z,100.00
2023-04-02T02:28:36.632Z,100.00
2023-04-02T02:31:13.684Z,100.00
2023-04-02T02:33:50.442Z,100.00
2023-04-02T02:37:07.680Z,100.00
2023-04-02T02:39:44.446Z,100.00
2023-04-02T02:42:27.325Z,100.00
2023-04-02T02:44:56.701Z,100.00
2023-04-02T02:47:35.512Z,100.00
2023-04-02T02:50:08.046Z,100.00
2023-04-02T02:52:39.953Z,100.00
2023-04-02T02:55:16.984Z,100.00
2023-04-02T02:57:59.595Z,100.00
2023-04-02T03:00:27.309Z,100.00
2023-04-02T03:02:57.142Z,100.00
2023-04-02T03:05:27.884Z,100.00
2023-04-02T03:07:57.601Z,100.00
2023-04-02T03:10:36.901Z,100.00
2023-04-02T03:13:33.378Z,100.00
2023-04-02T03:16:15.459Z,100.00
2023-04-02T03:18:47.265Z,100.00
2023-04-02T03:21:40.117Z,100.00
2023-04-02T03:24:32.706Z,100.00
2023-04-02T03:27:12.146Z,100.00
2023-04-02T03:29:53.401Z,100.00
2023-04-02T03:32:32.507Z,100.00
2023-04-02T03:35:27.619Z,100.00
2023-04-02T03:38:19.758Z,100.00
2023-04-02T03:41:07.882Z,100.00
2023-04-02T03:43:46.873Z,100.00
2023-04-02T03:46:25.309Z,100.00
2023-04-02T03:48:59.942Z,100.00
2023-04-02T03:52:05.010Z,100.00
2023-04-02T03:54:32.485Z,100.00
2023-04-02T03:57:00.593Z,100.00
2023-04-02T03:59:54.807Z,100.00
2023-04-02T04:02:41.243Z,100.00
2023-04-02T04:05:26.634Z,100.00
2023-04-02T04:08:01.000Z,100.00
2023-04-02T04:10:29.434Z,100.00
2023-04-02T04:13:09.121Z,100.00
2023-04-02T04:16:00.417Z,100.00
2023-04-02T04:18:57.490Z,100.00
2023-04-02T04:21:37.162Z,100.00
2023-04-02T04:24:13.007Z,100.00
2023-04-02T04:27:04.066Z,100.00
2023-04-02T04:29:31.674Z,100.00
2023-04-02T04:32:21.269Z,100.00
2023-04-02T04:34:53.782Z,100.00
2023-04-02T04:37:29.308Z,100.00
2023-04-02T04:40:06.630Z,100.00
2023-04-02T04:42:36.893Z,100.00
2023-04-02T04:45:07.026Z,100.00
2023-04-02T04:47:39.727Z,100.00
2023-04-02T04:50:22.376Z,100.00
2023-04-02T04:52:49.461Z,100.00
2023-04-02T04:55:42.699Z,100.00
2023-04-02T04:58:25.385Z,100.00
2023-04-02T05:01:04.329Z,100.00
2023-04-02T05:03:40.246Z,100.00
2023-04-02T05:06:34.955Z,100.00
2023-04-02T05:09:39.288Z,100.00
2023-04-02T05:12:26.804Z,100.00
2023-04-02T05:15:09.827Z,100.00
2023-04-02T05:17:50.637Z,100.00
2023-04-02T05:20:28.121Z,100.00
2023-04-02T05:23:04.160Z,100.00
2023-04-02T05:25:33.273Z,100.00
2023-04-02T05:28:15.409Z,100.00
2023-04-02T05:31:06.158Z,100.00
2023-04-02T05:33:37.505Z,100.00
2023-04-02T05:36:21.739Z,100.00
2023-04-02T05:38:51.412Z,100.00
2023-04-02T05:41:42.295Z,100.00
2023-04-02T05:44:28.889Z,100.00
2023-04-02T05:47:19.340Z,100.00
2023-04-02T05:50:10.218Z,100.00
2023-04-02T05:52:46.038Z,100.00
2023-04-02T05:55:13.446Z,100.00
2023-04-02T05:58:07.399Z,100.00
2023-04-02T06:00:42.704Z,100.00
2023-04-02T06:03:46.532Z,100.00
2023-04-02T06:06:29.665Z,100.00
2023-04-02T06:09:05.587Z,100.00
2023-04-02T06:12:41.008Z,100.00
2023-04-02T06:15:21.539Z,100.00
2023-04-02T06:18:00.278Z,100.00
2023-04-02T06:20:28.276Z,100.00
2023-04-02T06:23:07.380Z,100.00
2023-04-02T06:25:42.110Z,100.00
2023-04-02T06:28:26.713Z,100.00
2023-04-02T06:30:58.436Z,100.00
2023-04-02T06:33:25.827Z,100.00
2023-04-02T06:35:54.872Z,100.00
2023-04-02T06:38:27.507Z,100.00
2023-04-02T06:41:03.822Z,100.00
2023-04-02T06:43:43.263Z,100.00
2023-04-02T06:46:20.053Z,100.00
2023-04-02T06:48:48.569Z,100.00
2023-04-02T06:51:19.092Z,100.00
2023-04-02T06:53:51.762Z,100.00
2023-04-02T06:56:42.361Z,100.00
2023-04-02T06:59:12.770Z,100.00
2023-04-02T07:01:51.603Z,100.00
2023-04-02T07:04:20.988Z,100.00
2023-04-02T07:06:48.616Z,100.00
2023-04-02T07:09:16.809Z,100.00
2023-04-02T07:11:44.332Z,100.00
2023-04-02T07:14:13.146Z,100.00
2023-04-02T07:16:42.399Z,100.00
2023-04-02T07:19:20.087Z,100.00
2023-04-02T07:21:47.992Z,100.00
2023-04-02T07:24:15.535Z,100.00
2023-04-02T07:26:43.366Z,100.00
2023-04-02T07:29:16.111Z,100.00
2023-04-02T07:31:43.795Z,100.00
2023-04-02T07:34:11.257Z,100.00
2023-04-02T07:36:38.595Z,100.00
2023-04-02T07:39:06.304Z,100.00
2023-04-02T07:41:33.611Z,100.00
2023-04-02T07:44:01.131Z,100.00
2023-04-02T07:46:28.497Z,100.00
2023-04-02T07:48:56.095Z,100.00
2023-04-02T07:51:26.302Z,100.00
2023-04-02T07:53:56.500Z,100.00
2023-04-02T07:56:25.355Z,100.00
2023-04-02T07:58:53.038Z,100.00
2023-04-02T08:01:28.114Z,100.00
2023-04-02T08:03:57.594Z,100.00
2023-04-02T08:06:25.675Z,100.00
2023-04-02T08:08:53.248Z,100.00
2023-04-02T08:11:20.838Z,100.00
2023-04-02T08:13:48.238Z,100.00
2023-04-02T08:16:16.127Z,100.00
2023-04-02T08:18:43.148Z,100.00
2023-04-02T08:21:11.642Z,100.00
2023-04-02T08:23:38.638Z,100.00
2023-04-02T08:26:06.674Z,100.00
2023-04-02T08:28:34.345Z,100.00
2023-04-02T08:31:02.430Z,100.00
2023-04-02T08:33:30.011Z,100.00
2023-04-02T08:35:57.420Z,100.00
2023-04-02T08:38:25.416Z,100.00
2023-04-02T08:40:56.820Z,100.00
2023-04-02T08:43:48.802Z,100.00
2023-04-02T08:46:42.506Z,100.00
2023-04-02T08:49:43.691Z,100.00
2023-04-02T08:52:27.928Z,100.00
2023-04-02T08:54:57.982Z,100.00
2023-04-02T08:57:36.098Z,100.00
2023-04-02T09:00:23.184Z,100.00
2023-04-02T09:03:01.279Z,99.82
2023-04-02T09:05:35.070Z,100.00
2023-04-02T09:08:07.915Z,98.10
2023-04-02T09:10:44.638Z,98.42
2023-04-02T09:13:27.293Z,98.24
2023-04-02T09:16:08.393Z,98.69
2023-04-02T09:18:36.791Z,97.93
2023-04-02T09:21:49.288Z,96.54
2023-04-02T09:24:16.744Z,96.30
2023-04-02T09:26:43.692Z,96.72
2023-04-02T09:29:14.125Z,96.15
2023-04-02T09:31:48.074Z,96.54
2023-04-02T09:34:32.479Z,95.40
2023-04-02T09:37:25.910Z,95.13
2023-04-02T09:40:11.595Z,95.87
2023-04-02T09:42:38.927Z,96.43
2023-04-02T09:45:34.360Z,95.42
2023-04-02T09:48:02.549Z,95.85
2023-04-02T09:50:33.908Z,94.74
2023-04-02T09:53:34.196Z,93.62
2023-04-02T09:56:13.151Z,94.71
2023-04-02T09:58:42.348Z,95.49
2023-04-02T10:01:33.362Z,96.06
2023-04-02T10:04:02.004Z,96.19
2023-04-02T10:06:31.177Z,96.62
2023-04-02T10:08:58.414Z,97.05
2023-04-02T10:11:46.201Z,97.33
2023-04-02T10:14:23.298Z,98.44
2023-04-02T10:16:54.373Z,98.55
2023-04-02T10:19:30.840Z,98.49
2023-04-02T10:22:02.204Z,98.11
2023-04-02T10:24:29.784Z,100.00
2023-04-02T10:27:39.841Z,100.00
2023-04-02T10:30:45.253Z,100.00
2023-04-02T10:33:27.634Z,100.00
2023-04-02T10:36:08.588Z,100.00
2023-04-02T10:38:42.636Z,100.00
2023-04-02T10:41:18.223Z,100.00
2023-04-02T10:43:45.717Z,100.00
2023-04-02T10:46:37.878Z,100.00
2023-04-02T10:49:22.256Z,100.00
2023-04-02T10:52:25.706Z,100.00
2023-04-02T10:54:57.332Z,100.00
2023-04-02T10:57:54.388Z,100.00
2023-04-02T11:00:28.130Z,100.00
2023-04-02T11:03:15.133Z,100.00
2023-04-02T11:05:47.755Z,100.00
2023-04-02T11:08:47.877Z,100.00
2023-04-02T11:11:15.214Z,100.00
2023-04-02T11:14:05.100Z,100.00
2023-04-02T11:16:33.033Z,100.00
2023-04-02T11:19:15.645Z,100.00
2023-04-02T11:22:01.838Z,100.00
2023-04-02T11:24:30.388Z,100.00
2023-04-02T11:27:14.459Z,100.00
2023-04-02T11:30:16.315Z,100.00
2023-04-02T11:32:51.809Z,100.00
2023-04-02T11:35:30.907Z,100.00
2023-04-02T11:38:09.642Z,100.00
2023-04-02T11:40:59.475Z,100.00
2023-04-02T11:43:36.128Z,100.00
2023-04-02T11:46:42.274Z,100.00
2023-04-02T11:49:40.259Z,100.00
2023-04-02T11:52:45.803Z,100.00
2023-04-02T11:55:31.314Z,100.00
2023-04-02T11:58:39.000Z,100.00
2023-04-02T12:01:09.172Z,100.00
2023-04-02T12:04:13.417Z,100.00
2023-04-02T12:07:07.543Z,100.00
2023-04-02T12:09:42.707Z,100.00
2023-04-02T12:12:39.012Z,100.00
2023-04-02T12:15:35.451Z,100.00
2023-04-02T12:18:26.421Z,100.00
2023-04-02T12:20:56.923Z,100.00
2023-04-02T12:23:34.088Z,100.00
2023-04-02T12:26:08.770Z,100.00
2023-04-02T12:28:38.329Z,100.00
2023-04-02T12:31:18.507Z,100.00
2023-04-02T12:33:46.047Z,100.00
2023-04-02T12:36:16.167Z,100.00
2023-04-02T12:38:56.102Z,100.00
2023-04-02T12:41:31.258Z,100.00
2023-04-02T12:43:59.812Z,100.00
2023-04-02T12:46:28.537Z,100.00
2023-04-02T12:49:07.862Z,100.00
2023-04-02T12:51:36.813Z,100.00
2023-04-02T12:54:04.611Z,100.00
2023-04-02T12:56:32.263Z,100.00
2023-04-02T12:59:00.821Z,100.00
2023-04-02T13:01:31.915Z,100.00
2023-04-02T13:04:12.889Z,100.00
2023-04-02T13:06:42.535Z,100.00
2023-04-02T13:09:29.447Z,100.00
2023-04-02T13:11:57.116Z,100.00
2023-04-02T13:14:26.021Z,100.00
2023-04-02T13:16:53.888Z,100.00
2023-04-02T13:19:35.067Z,100.00
2023-04-02T13:22:03.865Z,100.00
2023-04-02T13:24:33.146Z,100.00
2023-04-02T13:27:02.976Z,100.00
2023-04-02T13:29:35.916Z,100.00
2023-04-02T13:32:12.406Z,100.00
2023-04-02T13:34:39.794Z,100.00
2023-04-02T13:37:07.153Z,100.00
2023-04-02T13:39:34.517Z,100.00
2023-04-02T13:42:04.402Z,100.00
2023-04-02T13:44:34.477Z,100.00
2023-04-02T13:47:01.968Z,100.00
2023-04-02T13:49:29.940Z,100.00
2023-04-02T13:52:05.481Z,100.00
2023-04-02T13:54:47.121Z,100.00
2023-04-02T13:57:15.537Z,100.00
2023-04-02T13:59:43.653Z,100.00
2023-04-02T14:02:18.276Z,100.00
2023-04-02T14:04:51.042Z,100.00
2023-04-02T14:07:58.675Z,100.00
2023-04-02T14:10:37.593Z,100.00
2023-04-02T14:13:51.192Z,100.00
2023-04-02T14:16:51.946Z,100.00
2023-04-02T14:19:51.127Z,100.00
2023-04-02T14:23:13.586Z,100.00
2023-04-02T14:26:28.726Z,100.00
2023-04-02T14:29:09.581Z,100.00
2023-04-02T14:31:47.506Z,100.00
2023-04-02T14:34:51.594Z,100.00
2023-04-02T14:38:03.137Z,100.00
2023-04-02T14:40:51.703Z,100.00
2023-04-02T14:43:22.400Z,100.00
2023-04-02T14:46:02.983Z,100.00
2023-04-02T14:48:56.590Z,100.00
2023-04-02T14:51:32.194Z,100.00
2023-04-02T14:54:27.207Z,100.00
2023-04-02T14:57:05.800Z,100.00
2023-04-02T14:59:57.167Z,100.00
2023-04-02T15:02:53.420Z,100.00
2023-04-02T15:05:44.364Z,100.00
2023-04-02T15:08:43.571Z,100.00
2023-04-02T15:11:20.079Z,100.00
2023-04-02T15:14:23.466Z,100.00
2023-04-02T15:16:50.595Z,100.00
2023-04-02T15:19:19.157Z,100.00
2023-04-02T15:21:57.211Z,100.00
2023-04-02T15:24:42.662Z,100.00
2023-04-02T15:27:39.435Z,100.00
2023-04-02T15:30:24.230Z,100.00
2023-04-02T15:32:52.675Z,100.00
2023-04-02T15:35:29.402Z,100.00
2023-04-02T15:38:18.344Z,100.00
2023-04-02T15:40:55.356Z,100.00
2023-04-02T15:43:44.741Z,100.00
2023-04-02T15:47:08.951Z,100.00
2023-04-02T15:50:00.638Z,100.00
2023-04-02T15:52:54.859Z,100.00
2023-04-02T15:55:57.263Z,100.00
2023-04-02T15:58:55.062Z,100.00
2023-04-02T16:02:18.453Z,100.00
2023-04-02T16:04:54.152Z,100.00
2023-04-02T16:07:25.586Z,100.00
2023-04-02T16:10:30.623Z,100.00
2023-04-02T16:13:01.619Z,100.00
2023-04-02T16:15:43.885Z,100.00
2023-04-02T16:18:26.229Z,100.00
2023-04-02T16:20:56.704Z,100.00
2023-04-02T16:23:42.849Z,100.00
2023-04-02T16:26:23.649Z,100.00
2023-04-02T16:29:06.266Z,100.00
2023-04-02T16:32:05.173Z,100.00
2023-04-02T16:35:22.245Z,99.77
2023-04-02T16:38:35.359Z,99.70
2023-04-02T16:41:38.995Z,99.40
2023-04-02T16:44:30.384Z,99.87
2023-04-02T16:47:44.559Z,100.00
2023-04-02T16:50:38.280Z,100.00
2023-04-02T16:54:00.370Z,99.62
2023-04-02T16:56:49.652Z,100.00
2023-04-02T16:59:34.554Z,100.00
2023-04-02T17:02:31.573Z,99.93
2023-04-02T17:05:12.845Z,99.10
2023-04-02T17:07:52.168Z,99.33
2023-04-02T17:10:40.382Z,98.80
2023-04-02T17:13:41.912Z,98.09
2023-04-02T17:16:46.351Z,98.39
2023-04-02T17:19:16.680Z,98.36
2023-04-02T17:21:53.300Z,97.92
2023-04-02T17:24:51.112Z,97.57
2023-04-02T17:27:28.585Z,97.75
2023-04-02T17:30:04.344Z,97.39
2023-04-02T17:32:33.839Z,97.63
2023-04-02T17:35:27.952Z,97.17
2023-04-02T17:38:15.758Z,97.02
2023-04-02T17:41:22.574Z,97.12
2023-04-02T17:44:50.483Z,96.57
2023-04-02T17:47:26.624Z,96.70
2023-04-02T17:50:12.282Z,96.87
2023-04-02T17:52:39.747Z,95.67
2023-04-02T17:55:31.361Z,94.93
2023-04-02T17:58:02.086Z,95.09
2023-04-02T18:00:38.818Z,94.62
2023-04-02T18:03:37.556Z,94.02
2023-04-02T18:06:34.806Z,94.18
2023-04-02T18:09:33.367Z,93.74
2023-04-02T18:12:01.672Z,92.92
2023-04-02T18:14:38.608Z,92.76
2023-04-02T18:17:20.292Z,92.67
2023-04-02T18:20:27.826Z,92.57
2023-04-02T18:23:22.669Z,92.09
2023-04-02T18:26:12.771Z,91.82
2023-04-02T18:28:40.107Z,92.03
2023-04-02T18:31:39.918Z,92.13
2023-04-02T18:34:10.322Z,92.16
2023-04-02T18:37:15.350Z,91.66
2023-04-02T18:40:22.221Z,91.29
2023-04-02T18:42:52.564Z,91.05
2023-04-02T18:45:31.783Z,90.99
2023-04-02T18:48:05.441Z,91.13
2023-04-02T18:50:36.370Z,90.74
2023-04-02T18:53:16.921Z,90.57
2023-04-02T18:56:10.762Z,90.83
2023-04-02T18:59:12.263Z,91.05
2023-04-02T19:01:47.254Z,91.50
2023-04-02T19:04:26.697Z,91.17
2023-04-02T19:07:09.027Z,91.24
2023-04-02T19:09:42.465Z,91.12
2023-04-02T19:12:19.530Z,90.95
2023-04-02T19:14:50.994Z,90.56
2023-04-02T19:17:39.002Z,90.40
2023-04-02T19:20:25.616Z,90.15
2023-04-02T19:22:59.059Z,89.69
2023-04-02T19:25:54.111Z,89.32
2023-04-02T19:28:59.132Z,89.25
2023-04-02T19:31:29.124Z,89.28
2023-04-02T19:34:09.136Z,88.89
2023-04-02T19:36:55.427Z,89.25
2023-04-02T19:39:51.037Z,89.04
2023-04-02T19:42:41.991Z,89.40
2023-04-02T19:45:50.898Z,88.52
2023-04-02T19:48:38.201Z,87.65
2023-04-02T19:51:05.598Z,87.50
2023-04-02T19:53:33.336Z,87.30
2023-04-02T19:56:01.235Z,87.77
2023-04-02T19:58:34.513Z,87.84
2023-04-02T20:01:02.618Z,87.84
2023-04-02T20:03:33.129Z,87.35
2023-04-02T20:06:01.017Z,87.56
2023-04-02T20:08:28.866Z,87.37
2023-04-02T20:10:58.618Z,87.38
2023-04-02T20:13:26.193Z,86.98
2023-04-02T20:15:53.633Z,86.43
2023-04-02T20:18:21.563Z,86.62
2023-04-02T20:20:49.751Z,86.89
2023-04-02T20:23:17.595Z,86.97
2023-04-02T20:25:46.926Z,87.09
2023-04-02T20:28:14.541Z,86.91
2023-04-02T20:30:42.201Z,86.58
2023-04-02T20:33:09.693Z,86.40
2023-04-02T20:35:37.902Z,86.65
2023-04-02T20:38:06.933Z,86.62
2023-04-02T20:40:34.346Z,86.68
2023-04-02T20:43:02.202Z,86.76
2023-04-02T20:45:29.651Z,86.75
2023-04-02T20:47:57.679Z,87.11
2023-04-02T20:50:24.903Z,86.95
2023-04-02T20:52:52.656Z,87.36
2023-04-02T20:55:20.219Z,87.01
2023-04-02T20:57:47.778Z,86.75
2023-04-02T21:00:15.582Z,86.55
2023-04-02T21:02:42.964Z,86.59
2023-04-02T21:05:10.419Z,86.29
2023-04-02T21:07:37.823Z,85.62
2023-04-02T21:10:05.650Z,86.19
2023-04-02T21:12:33.010Z,86.11
2023-04-02T21:15:02.562Z,86.64
2023-04-02T21:17:30.612Z,86.48
2023-04-02T21:19:58.086Z,86.83
2023-04-02T21:22:25.877Z,86.96
2023-04-02T21:24:53.289Z,86.82
2023-04-02T21:27:25.582Z,86.87
2023-04-02T21:29:53.130Z,86.44
2023-04-02T21:32:21.993Z,86.51
2023-04-02T21:34:49.722Z,86.50
2023-04-02T21:37:17.078Z,85.83
2023-04-02T21:39:44.422Z,85.97
2023-04-02T21:42:13.150Z,85.81
2023-04-02T21:44:40.722Z,84.54
2023-04-02T21:47:08.320Z,83.64
2023-04-02T21:49:36.018Z,82.78
2023-04-02T21:52:03.464Z,82.64
2023-04-02T21:54:30.781Z,82.19
2023-04-02T21:56:58.281Z,82.15
2023-04-02T21:59:26.007Z,81.71
2023-04-02T22:01:54.342Z,81.19
2023-04-02T22:04:24.912Z,80.90
2023-04-02T22:06:53.480Z,80.60
2023-04-02T22:09:24.805Z,80.68
2023-04-02T22:11:55.655Z,80.80
2023-04-02T22:14:23.855Z,80.51
2023-04-02T22:16:52.334Z,80.02
2023-04-02T22:19:19.920Z,79.50
2023-04-02T22:21:47.314Z,79.50
2023-04-02T22:24:18.885Z,80.01
2023-04-02T22:26:46.850Z,79.96
2023-04-02T22:29:14.517Z,79.88
2023-04-02T22:31:41.993Z,78.63
2023-04-02T22:34:09.700Z,78.96
2023-04-02T22:36:37.099Z,78.92
2023-04-02T22:39:07.105Z,78.79
2023-04-02T22:41:34.627Z,78.77
2023-04-02T22:44:02.425Z,78.64
2023-04-02T22:46:30.599Z,78.26
2023-04-02T22:48:58.280Z,78.06
2023-04-02T22:51:27.918Z,77.46
2023-04-02T22:53:56.488Z,77.86
2023-04-02T22:56:29.743Z,77.24
2023-04-02T22:58:57.144Z,75.76
2023-04-02T23:01:29.258Z,75.37
2023-04-02T23:03:56.790Z,74.98
2023-04-02T23:06:24.870Z,74.61
2023-04-02T23:08:52.334Z,74.57
2023-04-02T23:11:26.031Z,74.64
2023-04-02T23:13:55.813Z,74.62
2023-04-02T23:16:23.138Z,74.71
2023-04-02T23:18:51.264Z,75.32
2023-04-02T23:21:20.900Z,74.98
2023-04-02T23:23:48.982Z,75.00
2023-04-02T23:26:21.210Z,75.77
2023-04-02T23:28:49.092Z,76.02
2023-04-02T23:31:20.486Z,75.02
2023-04-02T23:33:47.915Z,74.82
2023-04-02T23:36:21.535Z,75.20
2023-04-02T23:38:48.992Z,75.26
2023-04-02T23:41:17.434Z,75.46
2023-04-02T23:43:45.093Z,76.02
2023-04-02T23:46:12.414Z,76.32
2023-04-02T23:48:39.749Z,76.83
2023-04-02T23:51:07.513Z,76.71
2023-04-02T23:53:35.258Z,77.29
2023-04-02T23:56:02.589Z,78.24
2023-04-02T23:58:30.039Z,78.77
